LGX38AH LIRA-LIMJ
Flight info
| Callsign | LGX38AH |
|---|---|
| Flight time | 0h 57m |
| Altitude | 24000 |
| Route | GILIO DCT ELB/N0310F180 M729 IDONA |
| Aircraft | B350/L-SBGRWY/C |
Departure
| Time | 2026-05-06 20:21 |
|---|---|
| Airport | Ciampino–G. B. Pastine International Airport (LIRA) |
Arrival
| Time | 2026-05-06 21:18 |
|---|---|
| Airport | Genoa Cristoforo Colombo Airport (LIMJ) |
| Time | Latitude | Longitude | Altitude | Speed | Heading |
|---|---|---|---|---|---|
| 2026-05-06 19:44 | 41.79406 | 12.59342 | 405 ft | 0 kts | 233° |
| 2026-05-06 20:14 | 41.79411 | 12.59331 | 404 ft | 4 kts | 0° |
| 2026-05-06 20:15 | 41.79440 | 12.59364 | 405 ft | 7 kts | 342° |
| 2026-05-06 20:15 | 41.79505 | 12.59300 | 401 ft | 15 kts | 320° |
| 2026-05-06 20:15 | 41.79592 | 12.59210 | 396 ft | 9 kts | 321° |
| 2026-05-06 20:15 | 41.79621 | 12.59186 | 394 ft | 4 kts | 5° |
| 2026-05-06 20:16 | 41.79652 | 12.59219 | 394 ft | 7 kts | 51° |
| 2026-05-06 20:16 | 41.79700 | 12.59288 | 394 ft | 11 kts | 13° |
| 2026-05-06 20:16 | 41.79745 | 12.59296 | 393 ft | 5 kts | 8° |
| 2026-05-06 20:16 | 41.79792 | 12.59320 | 393 ft | 8 kts | 37° |
| 2026-05-06 20:17 | 41.79860 | 12.59333 | 391 ft | 14 kts | 332° |
| 2026-05-06 20:17 | 41.79979 | 12.59249 | 381 ft | 19 kts | 334° |
| 2026-05-06 20:17 | 41.80098 | 12.59169 | 373 ft | 14 kts | 334° |
| 2026-05-06 20:17 | 41.80167 | 12.59122 | 369 ft | 13 kts | 330° |
| 2026-05-06 20:18 | 41.80271 | 12.59051 | 363 ft | 15 kts | 333° |
| 2026-05-06 20:18 | 41.80335 | 12.59005 | 360 ft | 11 kts | 332° |
| 2026-05-06 20:18 | 41.80428 | 12.58939 | 357 ft | 18 kts | 332° |
| 2026-05-06 20:18 | 41.80541 | 12.58864 | 353 ft | 14 kts | 334° |
| 2026-05-06 20:19 | 41.80579 | 12.58839 | 352 ft | 0 kts | 334° |
| 2026-05-06 20:19 | 41.80606 | 12.58821 | 351 ft | 8 kts | 334° |
| 2026-05-06 20:19 | 41.80682 | 12.58769 | 348 ft | 12 kts | 332° |
| 2026-05-06 20:19 | 41.80702 | 12.58754 | 347 ft | 6 kts | 332° |
| 2026-05-06 20:20 | 41.80712 | 12.58748 | 343 ft | 1 kts | 359° |
| 2026-05-06 20:20 | 41.80730 | 12.58768 | 343 ft | 5 kts | 51° |
| 2026-05-06 20:20 | 41.80744 | 12.58818 | 344 ft | 7 kts | 68° |
| 2026-05-06 20:20 | 41.80772 | 12.58898 | 345 ft | 10 kts | 66° |
| 2026-05-06 20:21 | 41.80734 | 12.58934 | 347 ft | 6 kts | 151° |
| 2026-05-06 20:21 | 41.80526 | 12.59083 | 354 ft | 80 kts | 150° |
| 2026-05-06 20:21 | 41.79870 | 12.59534 | 655 ft | 118 kts | 153° |
| 2026-05-06 20:21 | 41.79079 | 12.59940 | 1230 ft | 135 kts | 179° |
| 2026-05-06 20:22 | 41.78145 | 12.59498 | 1760 ft | 156 kts | 207° |
| 2026-05-06 20:22 | 41.77274 | 12.58597 | 2419 ft | 165 kts | 226° |
| 2026-05-06 20:22 | 41.76631 | 12.57266 | 2996 ft | 179 kts | 242° |
| 2026-05-06 20:22 | 41.76281 | 12.55625 | 3546 ft | 192 kts | 259° |
| 2026-05-06 20:23 | 41.76094 | 12.53768 | 4031 ft | 204 kts | 261° |
| 2026-05-06 20:23 | 41.76005 | 12.52055 | 5104 ft | 184 kts | 275° |
| 2026-05-06 20:23 | 41.76545 | 12.50480 | 5712 ft | 194 kts | 301° |
| 2026-05-06 20:23 | 41.77214 | 12.48939 | 6429 ft | 187 kts | 293° |
| 2026-05-06 20:24 | 41.77811 | 12.47427 | 7103 ft | 186 kts | 296° |
| 2026-05-06 20:24 | 41.78460 | 12.45964 | 7765 ft | 188 kts | 297° |
| 2026-05-06 20:24 | 41.79144 | 12.44484 | 8427 ft | 188 kts | 298° |
| 2026-05-06 20:24 | 41.79839 | 12.43006 | 9083 ft | 190 kts | 298° |
| 2026-05-06 20:25 | 41.80542 | 12.41519 | 9732 ft | 191 kts | 299° |
| 2026-05-06 20:25 | 41.81247 | 12.40030 | 10352 ft | 192 kts | 299° |
| 2026-05-06 20:25 | 41.81968 | 12.38506 | 10940 ft | 196 kts | 299° |
| 2026-05-06 20:25 | 41.82689 | 12.36982 | 11540 ft | 198 kts | 299° |
| 2026-05-06 20:26 | 41.83428 | 12.35422 | 12162 ft | 199 kts | 298° |
| 2026-05-06 20:26 | 41.84164 | 12.33865 | 12786 ft | 199 kts | 298° |
| 2026-05-06 20:26 | 41.84899 | 12.32309 | 13415 ft | 198 kts | 297° |
| 2026-05-06 20:26 | 41.85618 | 12.30786 | 14026 ft | 196 kts | 297° |
| 2026-05-06 20:27 | 41.86340 | 12.29256 | 14635 ft | 194 kts | 297° |
| 2026-05-06 20:27 | 41.87054 | 12.27743 | 15224 ft | 192 kts | 297° |
| 2026-05-06 20:27 | 41.87763 | 12.26240 | 15792 ft | 189 kts | 297° |
| 2026-05-06 20:27 | 41.88547 | 12.24834 | 16287 ft | 193 kts | 307° |
| 2026-05-06 20:28 | 41.89474 | 12.23487 | 16657 ft | 201 kts | 308° |
| 2026-05-06 20:28 | 41.90435 | 12.22108 | 17052 ft | 206 kts | 308° |
| 2026-05-06 20:28 | 41.91421 | 12.20699 | 17474 ft | 209 kts | 309° |
| 2026-05-06 20:28 | 41.92417 | 12.19276 | 17910 ft | 210 kts | 309° |
| 2026-05-06 20:29 | 41.93431 | 12.17828 | 18290 ft | 215 kts | 308° |
| 2026-05-06 20:29 | 41.94463 | 12.16354 | 18696 ft | 219 kts | 308° |
| 2026-05-06 20:29 | 41.95501 | 12.14871 | 19103 ft | 221 kts | 308° |
| 2026-05-06 20:29 | 41.96552 | 12.13368 | 19525 ft | 222 kts | 308° |
| 2026-05-06 20:30 | 41.97601 | 12.11867 | 19939 ft | 223 kts | 308° |
| 2026-05-06 20:30 | 41.99723 | 12.08827 | 20780 ft | 222 kts | 307° |
| 2026-05-06 20:30 | 42.00773 | 12.07323 | 21198 ft | 222 kts | 307° |
| 2026-05-06 20:31 | 42.01821 | 12.05821 | 21601 ft | 221 kts | 307° |
| 2026-05-06 20:31 | 42.02860 | 12.04330 | 21997 ft | 220 kts | 307° |
| 2026-05-06 20:31 | 42.03909 | 12.02824 | 22385 ft | 221 kts | 306° |
| 2026-05-06 20:31 | 42.04958 | 12.01316 | 22779 ft | 221 kts | 306° |
| 2026-05-06 20:32 | 42.06012 | 11.99801 | 23129 ft | 223 kts | 306° |
| 2026-05-06 20:32 | 42.07077 | 11.98271 | 23488 ft | 225 kts | 306° |
| 2026-05-06 20:32 | 42.08145 | 11.96735 | 23844 ft | 225 kts | 306° |
| 2026-05-06 20:32 | 42.09226 | 11.95176 | 23999 ft | 236 kts | 306° |
| 2026-05-06 20:33 | 42.10379 | 11.93512 | 24024 ft | 251 kts | 306° |
| 2026-05-06 20:33 | 42.11605 | 11.91746 | 24022 ft | 263 kts | 307° |
| 2026-05-06 20:33 | 42.12880 | 11.89909 | 24014 ft | 275 kts | 307° |
| 2026-05-06 20:33 | 42.14201 | 11.88004 | 24009 ft | 284 kts | 307° |
| 2026-05-06 20:34 | 42.15578 | 11.86018 | 23999 ft | 292 kts | 307° |
| 2026-05-06 20:34 | 42.16966 | 11.84013 | 24004 ft | 299 kts | 307° |
| 2026-05-06 20:34 | 42.18403 | 11.81938 | 24006 ft | 305 kts | 307° |
| 2026-05-06 20:34 | 42.19850 | 11.79845 | 24004 ft | 310 kts | 307° |
| 2026-05-06 20:35 | 42.21324 | 11.77711 | 23985 ft | 315 kts | 307° |
| 2026-05-06 20:35 | 42.22820 | 11.75544 | 23988 ft | 318 kts | 307° |
| 2026-05-06 20:35 | 42.24330 | 11.73355 | 23987 ft | 320 kts | 307° |
| 2026-05-06 20:35 | 42.25859 | 11.71136 | 23991 ft | 322 kts | 307° |
| 2026-05-06 20:36 | 42.27381 | 11.68926 | 23990 ft | 324 kts | 307° |
| 2026-05-06 20:36 | 42.28933 | 11.66671 | 23986 ft | 326 kts | 308° |
| 2026-05-06 20:36 | 42.30456 | 11.64455 | 23979 ft | 328 kts | 308° |
| 2026-05-06 20:36 | 42.32018 | 11.62183 | 23981 ft | 327 kts | 308° |
| 2026-05-06 20:37 | 42.33546 | 11.59956 | 23983 ft | 327 kts | 308° |
| 2026-05-06 20:37 | 42.35110 | 11.57677 | 23983 ft | 327 kts | 307° |
| 2026-05-06 20:37 | 42.36636 | 11.55451 | 23988 ft | 326 kts | 308° |
| 2026-05-06 20:37 | 42.38190 | 11.53183 | 23984 ft | 327 kts | 307° |
| 2026-05-06 20:38 | 42.39716 | 11.50952 | 23984 ft | 327 kts | 307° |
| 2026-05-06 20:38 | 42.41259 | 11.48696 | 23986 ft | 327 kts | 307° |
| 2026-05-06 20:38 | 42.42798 | 11.46443 | 23985 ft | 327 kts | 307° |
| 2026-05-06 20:38 | 42.44349 | 11.44172 | 23983 ft | 327 kts | 307° |
| 2026-05-06 20:39 | 42.45894 | 11.41907 | 23976 ft | 327 kts | 307° |
| 2026-05-06 20:39 | 42.47419 | 11.39670 | 23979 ft | 327 kts | 307° |
| 2026-05-06 20:39 | 42.48959 | 11.37408 | 23975 ft | 327 kts | 307° |
| 2026-05-06 20:39 | 42.50505 | 11.35138 | 23980 ft | 327 kts | 307° |
| 2026-05-06 20:40 | 42.52043 | 11.32875 | 23986 ft | 327 kts | 306° |
| 2026-05-06 20:40 | 42.53573 | 11.30625 | 23985 ft | 327 kts | 307° |
| 2026-05-06 20:40 | 42.55120 | 11.28346 | 23982 ft | 327 kts | 307° |
| 2026-05-06 20:40 | 42.56660 | 11.26077 | 23983 ft | 327 kts | 307° |
| 2026-05-06 20:41 | 42.58194 | 11.23814 | 23981 ft | 327 kts | 307° |
| 2026-05-06 20:41 | 42.59735 | 11.21540 | 23980 ft | 328 kts | 307° |
| 2026-05-06 20:41 | 42.61259 | 11.19288 | 23978 ft | 328 kts | 306° |
| 2026-05-06 20:41 | 42.62793 | 11.17021 | 23976 ft | 328 kts | 306° |
| 2026-05-06 20:42 | 42.64329 | 11.14747 | 23977 ft | 327 kts | 306° |
| 2026-05-06 20:42 | 42.65864 | 11.12475 | 23977 ft | 327 kts | 306° |
| 2026-05-06 20:42 | 42.67420 | 11.10169 | 23979 ft | 327 kts | 306° |
| 2026-05-06 20:42 | 42.68952 | 11.07897 | 23976 ft | 327 kts | 306° |
| 2026-05-06 20:43 | 42.70480 | 11.05628 | 23971 ft | 327 kts | 306° |
| 2026-05-06 20:43 | 42.72022 | 11.03338 | 23973 ft | 327 kts | 306° |
| 2026-05-06 20:43 | 42.73543 | 11.01077 | 23974 ft | 327 kts | 306° |
| 2026-05-06 20:43 | 42.75086 | 10.98781 | 23975 ft | 327 kts | 306° |
| 2026-05-06 20:44 | 42.76616 | 10.96502 | 23976 ft | 328 kts | 306° |
| 2026-05-06 20:44 | 42.78146 | 10.94223 | 23979 ft | 328 kts | 306° |
| 2026-05-06 20:44 | 42.79685 | 10.91927 | 23977 ft | 328 kts | 306° |
| 2026-05-06 20:44 | 42.81210 | 10.89651 | 23980 ft | 328 kts | 306° |
| 2026-05-06 20:45 | 42.82741 | 10.87365 | 23979 ft | 329 kts | 306° |
| 2026-05-06 20:45 | 42.84294 | 10.85044 | 23976 ft | 329 kts | 306° |
| 2026-05-06 20:45 | 42.85831 | 10.82743 | 23980 ft | 329 kts | 306° |
| 2026-05-06 20:45 | 42.87355 | 10.80462 | 23973 ft | 329 kts | 306° |
| 2026-05-06 20:46 | 42.88909 | 10.78132 | 23973 ft | 329 kts | 306° |
| 2026-05-06 20:46 | 42.90439 | 10.75839 | 23973 ft | 329 kts | 306° |
| 2026-05-06 20:46 | 42.91967 | 10.73545 | 23974 ft | 328 kts | 306° |
| 2026-05-06 20:46 | 42.93507 | 10.71232 | 23981 ft | 328 kts | 306° |
| 2026-05-06 20:47 | 42.95027 | 10.68947 | 23973 ft | 329 kts | 306° |
| 2026-05-06 20:47 | 42.96564 | 10.66635 | 23974 ft | 329 kts | 306° |
| 2026-05-06 20:47 | 42.98103 | 10.64318 | 23974 ft | 329 kts | 306° |
| 2026-05-06 20:47 | 42.99645 | 10.61995 | 23973 ft | 330 kts | 306° |
| 2026-05-06 20:48 | 43.01173 | 10.59690 | 23975 ft | 330 kts | 306° |
| 2026-05-06 20:48 | 43.02707 | 10.57374 | 23973 ft | 330 kts | 306° |
| 2026-05-06 20:48 | 43.04251 | 10.55042 | 23975 ft | 330 kts | 305° |
| 2026-05-06 20:48 | 43.05782 | 10.52727 | 23972 ft | 330 kts | 306° |
| 2026-05-06 20:49 | 43.07325 | 10.50393 | 23964 ft | 331 kts | 305° |
| 2026-05-06 20:49 | 43.08870 | 10.48054 | 23973 ft | 331 kts | 305° |
| 2026-05-06 20:49 | 43.10424 | 10.45699 | 23967 ft | 331 kts | 306° |
| 2026-05-06 20:49 | 43.11948 | 10.43387 | 23956 ft | 331 kts | 305° |
| 2026-05-06 20:50 | 43.13482 | 10.41059 | 23957 ft | 331 kts | 306° |
| 2026-05-06 20:50 | 43.15024 | 10.38717 | 23953 ft | 330 kts | 306° |
| 2026-05-06 20:50 | 43.16571 | 10.36365 | 23961 ft | 330 kts | 306° |
| 2026-05-06 20:50 | 43.18106 | 10.34028 | 23953 ft | 330 kts | 304° |
| 2026-05-06 20:51 | 43.19643 | 10.31688 | 23954 ft | 330 kts | 305° |
| 2026-05-06 20:51 | 43.21164 | 10.29369 | 23959 ft | 330 kts | 305° |
| 2026-05-06 20:51 | 43.22706 | 10.27019 | 23952 ft | 330 kts | 304° |
| 2026-05-06 20:51 | 43.24239 | 10.24677 | 23947 ft | 331 kts | 304° |
| 2026-05-06 20:52 | 43.25753 | 10.22365 | 23949 ft | 331 kts | 304° |
| 2026-05-06 20:52 | 43.27307 | 10.19988 | 23951 ft | 330 kts | 304° |
| 2026-05-06 20:52 | 43.28825 | 10.17665 | 23950 ft | 331 kts | 304° |
| 2026-05-06 20:52 | 43.30372 | 10.15297 | 23949 ft | 331 kts | 304° |
| 2026-05-06 20:53 | 43.31909 | 10.12941 | 23949 ft | 331 kts | 304° |
| 2026-05-06 20:53 | 43.33433 | 10.10603 | 23949 ft | 331 kts | 304° |
| 2026-05-06 20:53 | 43.34973 | 10.08238 | 23947 ft | 330 kts | 304° |
| 2026-05-06 20:53 | 43.36487 | 10.05913 | 23951 ft | 330 kts | 304° |
| 2026-05-06 20:54 | 43.38019 | 10.03556 | 23949 ft | 330 kts | 304° |
| 2026-05-06 20:54 | 43.39555 | 10.01192 | 23942 ft | 331 kts | 304° |
| 2026-05-06 20:54 | 43.41084 | 9.98836 | 23944 ft | 330 kts | 304° |
| 2026-05-06 20:54 | 43.42605 | 9.96492 | 23949 ft | 330 kts | 304° |
| 2026-05-06 20:55 | 43.44140 | 9.94123 | 23942 ft | 331 kts | 304° |
| 2026-05-06 20:55 | 43.45655 | 9.91784 | 23946 ft | 331 kts | 304° |
| 2026-05-06 20:55 | 43.47197 | 9.89401 | 23945 ft | 331 kts | 304° |
| 2026-05-06 20:55 | 43.48724 | 9.87038 | 23944 ft | 331 kts | 304° |
| 2026-05-06 20:56 | 43.50235 | 9.84700 | 23945 ft | 331 kts | 304° |
| 2026-05-06 20:56 | 43.51766 | 9.82329 | 23946 ft | 331 kts | 304° |
| 2026-05-06 20:56 | 43.53306 | 9.79941 | 23939 ft | 331 kts | 304° |
| 2026-05-06 20:56 | 43.54812 | 9.77605 | 23939 ft | 331 kts | 304° |
| 2026-05-06 20:57 | 43.56341 | 9.75213 | 23940 ft | 330 kts | 304° |
| 2026-05-06 20:57 | 43.57853 | 9.72843 | 23936 ft | 330 kts | 303° |
| 2026-05-06 20:57 | 43.59354 | 9.70488 | 23937 ft | 330 kts | 303° |
| 2026-05-06 20:57 | 43.60877 | 9.68095 | 23934 ft | 329 kts | 303° |
| 2026-05-06 20:58 | 43.62384 | 9.65725 | 23928 ft | 329 kts | 303° |
| 2026-05-06 20:58 | 43.63893 | 9.63351 | 23935 ft | 329 kts | 303° |
| 2026-05-06 20:58 | 43.65403 | 9.60974 | 23933 ft | 328 kts | 303° |
| 2026-05-06 20:58 | 43.66884 | 9.58642 | 23756 ft | 325 kts | 303° |
| 2026-05-06 20:59 | 43.68371 | 9.56300 | 23360 ft | 320 kts | 303° |
| 2026-05-06 20:59 | 43.69807 | 9.54033 | 22812 ft | 316 kts | 303° |
| 2026-05-06 20:59 | 43.71247 | 9.51758 | 22298 ft | 311 kts | 303° |
| 2026-05-06 20:59 | 43.72648 | 9.49543 | 21756 ft | 308 kts | 303° |
| 2026-05-06 21:00 | 43.74037 | 9.47345 | 21223 ft | 304 kts | 303° |
| 2026-05-06 21:00 | 43.75419 | 9.45155 | 20687 ft | 302 kts | 303° |
| 2026-05-06 21:00 | 43.76804 | 9.42961 | 20156 ft | 299 kts | 303° |
| 2026-05-06 21:00 | 43.78147 | 9.40831 | 19637 ft | 296 kts | 304° |
| 2026-05-06 21:01 | 43.79492 | 9.38696 | 19115 ft | 294 kts | 304° |
| 2026-05-06 21:01 | 43.80832 | 9.36568 | 18599 ft | 291 kts | 304° |
| 2026-05-06 21:01 | 43.82138 | 9.34491 | 18100 ft | 289 kts | 303° |
| 2026-05-06 21:01 | 43.83451 | 9.32402 | 17604 ft | 287 kts | 304° |
| 2026-05-06 21:02 | 43.84753 | 9.30330 | 17113 ft | 285 kts | 304° |
| 2026-05-06 21:02 | 43.86050 | 9.28264 | 16625 ft | 283 kts | 304° |
| 2026-05-06 21:02 | 43.87333 | 9.26219 | 16142 ft | 282 kts | 304° |
| 2026-05-06 21:02 | 43.88599 | 9.24199 | 15666 ft | 280 kts | 304° |
| 2026-05-06 21:03 | 43.89874 | 9.22163 | 15188 ft | 279 kts | 304° |
| 2026-05-06 21:03 | 43.91129 | 9.20157 | 14719 ft | 277 kts | 305° |
| 2026-05-06 21:03 | 43.92388 | 9.18146 | 14242 ft | 274 kts | 305° |
| 2026-05-06 21:03 | 43.93632 | 9.16157 | 13770 ft | 271 kts | 305° |
| 2026-05-06 21:04 | 43.94856 | 9.14196 | 13300 ft | 269 kts | 306° |
| 2026-05-06 21:04 | 43.96066 | 9.12259 | 12892 ft | 265 kts | 306° |
| 2026-05-06 21:04 | 43.97271 | 9.10328 | 12500 ft | 261 kts | 306° |
| 2026-05-06 21:04 | 43.98441 | 9.08449 | 12148 ft | 258 kts | 306° |
| 2026-05-06 21:05 | 43.99597 | 9.06591 | 11794 ft | 255 kts | 306° |
| 2026-05-06 21:05 | 44.00753 | 9.04733 | 11438 ft | 253 kts | 306° |
| 2026-05-06 21:05 | 44.01901 | 9.02889 | 11083 ft | 252 kts | 306° |
| 2026-05-06 21:05 | 44.03035 | 9.01066 | 10737 ft | 251 kts | 307° |
| 2026-05-06 21:06 | 44.04175 | 8.99232 | 10389 ft | 250 kts | 306° |
| 2026-05-06 21:06 | 44.05310 | 8.97403 | 10046 ft | 249 kts | 307° |
| 2026-05-06 21:06 | 44.06435 | 8.95590 | 9697 ft | 248 kts | 307° |
| 2026-05-06 21:06 | 44.07567 | 8.93763 | 9352 ft | 250 kts | 307° |
| 2026-05-06 21:07 | 44.08697 | 8.91941 | 9025 ft | 253 kts | 307° |
| 2026-05-06 21:07 | 44.09852 | 8.90076 | 8697 ft | 254 kts | 308° |
| 2026-05-06 21:07 | 44.11005 | 8.88213 | 8366 ft | 255 kts | 308° |
| 2026-05-06 21:07 | 44.12152 | 8.86359 | 8046 ft | 255 kts | 308° |
| 2026-05-06 21:08 | 44.13308 | 8.84489 | 7717 ft | 255 kts | 308° |
| 2026-05-06 21:08 | 44.14449 | 8.82642 | 7339 ft | 251 kts | 308° |
| 2026-05-06 21:08 | 44.15585 | 8.80802 | 6951 ft | 247 kts | 308° |
| 2026-05-06 21:08 | 44.16688 | 8.79016 | 6566 ft | 244 kts | 308° |
| 2026-05-06 21:09 | 44.17789 | 8.77230 | 6179 ft | 242 kts | 309° |
| 2026-05-06 21:09 | 44.18879 | 8.75463 | 5799 ft | 240 kts | 308° |
| 2026-05-06 21:09 | 44.19951 | 8.73721 | 5415 ft | 238 kts | 308° |
| 2026-05-06 21:09 | 44.21033 | 8.71964 | 5026 ft | 237 kts | 308° |
| 2026-05-06 21:10 | 44.22092 | 8.70241 | 4662 ft | 235 kts | 308° |
| 2026-05-06 21:10 | 44.23160 | 8.68504 | 4294 ft | 235 kts | 308° |
| 2026-05-06 21:10 | 44.24223 | 8.66779 | 3925 ft | 234 kts | 308° |
| 2026-05-06 21:10 | 44.25267 | 8.65113 | 3561 ft | 228 kts | 308° |
| 2026-05-06 21:11 | 44.26299 | 8.63477 | 3178 ft | 222 kts | 308° |
| 2026-05-06 21:11 | 44.27313 | 8.61867 | 2805 ft | 218 kts | 308° |
| 2026-05-06 21:11 | 44.28299 | 8.60296 | 2501 ft | 214 kts | 308° |
| 2026-05-06 21:11 | 44.29255 | 8.58776 | 2451 ft | 204 kts | 308° |
| 2026-05-06 21:12 | 44.30177 | 8.57314 | 2449 ft | 193 kts | 308° |
| 2026-05-06 21:12 | 44.31197 | 8.56223 | 2435 ft | 187 kts | 339° |
| 2026-05-06 21:12 | 44.32473 | 8.56240 | 2447 ft | 186 kts | 20° |
| 2026-05-06 21:12 | 44.33459 | 8.57334 | 2458 ft | 182 kts | 52° |
| 2026-05-06 21:13 | 44.34229 | 8.58713 | 2455 ft | 179 kts | 53° |
| 2026-05-06 21:13 | 44.34993 | 8.60085 | 2456 ft | 177 kts | 53° |
| 2026-05-06 21:13 | 44.35745 | 8.61421 | 2407 ft | 173 kts | 53° |
| 2026-05-06 21:13 | 44.36507 | 8.62742 | 2279 ft | 176 kts | 53° |
| 2026-05-06 21:14 | 44.37291 | 8.64085 | 2145 ft | 183 kts | 53° |
| 2026-05-06 21:14 | 44.38110 | 8.65486 | 1993 ft | 187 kts | 53° |
| 2026-05-06 21:14 | 44.38911 | 8.66865 | 1903 ft | 178 kts | 53° |
| 2026-05-06 21:14 | 44.39659 | 8.68154 | 1750 ft | 161 kts | 53° |
| 2026-05-06 21:15 | 44.40297 | 8.69286 | 1596 ft | 138 kts | 56° |
| 2026-05-06 21:15 | 44.40879 | 8.70295 | 1321 ft | 132 kts | 55° |
| 2026-05-06 21:15 | 44.41415 | 8.71292 | 1120 ft | 127 kts | 58° |
| 2026-05-06 21:15 | 44.41888 | 8.72296 | 983 ft | 119 kts | 73° |
| 2026-05-06 21:16 | 44.42239 | 8.73326 | 893 ft | 117 kts | 66° |
| 2026-05-06 21:16 | 44.42644 | 8.74317 | 750 ft | 114 kts | 73° |
| 2026-05-06 21:16 | 44.42820 | 8.75345 | 616 ft | 102 kts | 97° |
| 2026-05-06 21:16 | 44.42726 | 8.76281 | 621 ft | 96 kts | 107° |
| 2026-05-06 21:17 | 44.42577 | 8.77253 | 592 ft | 106 kts | 110° |
| 2026-05-06 21:17 | 44.42376 | 8.78208 | 497 ft | 100 kts | 112° |
| 2026-05-06 21:17 | 44.42192 | 8.79126 | 378 ft | 95 kts | 111° |
| 2026-05-06 21:17 | 44.42019 | 8.80009 | 319 ft | 96 kts | 106° |
| 2026-05-06 21:18 | 44.41853 | 8.80927 | 247 ft | 98 kts | 111° |
| 2026-05-06 21:18 | 44.41669 | 8.81848 | 148 ft | 97 kts | 110° |
| 2026-05-06 21:18 | 44.41480 | 8.82744 | 26 ft | 95 kts | 109° |
| 2026-05-06 21:18 | 44.41346 | 8.83420 | 15 ft | 42 kts | 106° |
| 2026-05-06 21:19 | 44.41305 | 8.83643 | 15 ft | 18 kts | 106° |
| 2026-05-06 21:19 | 44.41267 | 8.83828 | 15 ft | 21 kts | 106° |
| 2026-05-06 21:19 | 44.41228 | 8.84038 | 15 ft | 23 kts | 105° |
| 2026-05-06 21:19 | 44.41199 | 8.84194 | 15 ft | 5 kts | 103° |
| 2026-05-06 21:20 | 44.41212 | 8.84218 | 15 ft | 5 kts | 46° |
| 2026-05-06 21:20 | 44.41256 | 8.84284 | 15 ft | 12 kts | 47° |
| 2026-05-06 21:20 | 44.41320 | 8.84400 | 17 ft | 16 kts | 57° |
| 2026-05-06 21:20 | 44.41374 | 8.84510 | 19 ft | 12 kts | 52° |
| 2026-05-06 21:21 | 44.41403 | 8.84562 | 20 ft | 3 kts | 53° |
| 2026-05-06 21:21 | 44.41439 | 8.84538 | 19 ft | 10 kts | 323° |
| 2026-05-06 21:21 | 44.41494 | 8.84502 | 19 ft | 4 kts | 2° |
| 2026-05-06 21:21 | 44.41498 | 8.84500 | 19 ft | 0 kts | 318° |
| 2026-05-06 21:22 | 44.41500 | 8.84498 | 19 ft | 2 kts | 318° |
| 2026-05-06 21:22 | 44.41501 | 8.84496 | 19 ft | 0 kts | 318° |